Time;durP1;ratioP1;P1;durP2;ratioP2;P2;SDS_P1;SDS_P2;PMS_P1;PMS_P2;Temp;Humidity;BMP_temperature;BMP_pressure;BME280_temperature;BME280_humidity;BME280_pressure;Samples;Min_cycle;Max_cycle;Signal;HPM_P1;HPM_P2
2021/07/11 00:01:45;;;;;;;1999.90;999.90;;;19.10;99.90;;;;;;5077847;28;20402;-89
2021/07/11 00:04:11;;;;;;;1999.90;999.90;;;19.20;99.90;;;;;;5076426;28;20195;-89
2021/07/11 00:06:37;;;;;;;1999.90;999.90;;;19.20;99.90;;;;;;5077845;28;20195;-90
2021/07/11 00:09:12;;;;;;;1999.90;999.90;;;19.10;99.90;;;;;;5077467;28;20160;-89
2021/07/11 00:11:38;;;;;;;1999.90;999.90;;;19.10;99.90;;;;;;5077692;28;20378;-89
2021/07/11 00:14:04;;;;;;;1999.90;999.90;;;19.10;99.90;;;;;;5076161;28;20482;-89
2021/07/11 00:16:31;;;;;;;1999.90;999.90;;;19.10;99.90;;;;;;5076362;28;20487;-89
2021/07/11 00:22:53;;;;;;;1999.90;999.90;;;19.20;99.90;;;;;;5001939;28;21128;-90
2021/07/11 00:25:22;;;;;;;1999.90;999.90;;;19.20;99.90;;;;;;5035518;28;20524;-89
2021/07/11 00:27:57;;;;;;;1999.90;999.90;;;19.20;99.90;;;;;;5070246;28;20449;-90
2021/07/11 00:30:23;;;;;;;1999.90;999.90;;;19.20;99.90;;;;;;5076786;28;20397;-89
2021/07/11 00:32:49;;;;;;;1999.90;999.90;;;19.20;99.90;;;;;;5077356;28;20406;-89
2021/07/11 00:35:16;;;;;;;1999.90;999.90;;;19.20;99.90;;;;;;5077221;28;20437;-88
2021/07/11 00:37:42;;;;;;;1999.90;999.90;;;19.20;99.90;;;;;;5077014;28;20402;-89
2021/07/11 00:40:10;;;;;;;1999.90;999.90;;;19.10;99.90;;;;;;5076635;28;20403;-89
2021/07/11 00:42:36;;;;;;;1999.90;999.90;;;19.10;99.90;;;;;;5076675;28;20413;-89
2021/07/11 00:45:04;;;;;;;1999.90;999.90;;;19.00;99.90;;;;;;5076555;28;20453;-89
2021/07/11 00:47:30;;;;;;;1999.90;999.90;;;19.00;99.90;;;;;;5076616;28;20921;-89
2021/07/11 00:49:56;;;;;;;1999.90;999.90;;;19.00;99.90;;;;;;5058615;28;20410;-89
2021/07/11 00:52:22;;;;;;;1999.90;999.90;;;19.00;99.90;;;;;;5076309;28;20426;-89
2021/07/11 00:54:47;;;;;;;1999.90;999.90;;;19.00;99.90;;;;;;5076646;28;20179;-89
2021/07/11 00:57:13;;;;;;;1999.90;999.90;;;18.90;99.90;;;;;;5076870;28;20287;-89
2021/07/11 00:59:40;;;;;;;1999.90;999.90;;;19.00;99.90;;;;;;5058312;28;20177;-89
2021/07/11 01:02:34;;;;;;;1999.90;999.90;;;19.00;99.90;;;;;;5058734;28;20434;-89
2021/07/11 01:05:08;;;;;;;1999.90;999.90;;;19.00;99.90;;;;;;5076115;28;20449;-89
2021/07/11 01:07:51;;;;;;;1999.90;999.90;;;19.00;99.90;;;;;;5058411;28;20444;-89
2021/07/11 01:10:24;;;;;;;1999.90;999.90;;;19.00;99.90;;;;;;5075882;28;20766;-89
2021/07/11 01:12:53;;;;;;;1999.90;999.90;;;19.00;99.90;;;;;;5076047;28;20390;-89
2021/07/11 01:15:20;;;;;;;1999.90;999.90;;;19.00;99.90;;;;;;5075832;28;20414;-89
2021/07/11 01:17:46;;;;;;;1999.90;999.90;;;18.90;99.90;;;;;;5057884;28;20452;-89
2021/07/11 01:20:31;;;;;;;1999.90;999.90;;;18.90;99.90;;;;;;5057905;28;20414;-89
2021/07/11 01:26:29;;;;;;;1999.90;999.90;;;19.00;99.90;;;;;;5059776;28;20426;-89
2021/07/11 01:28:57;;;;;;;1999.90;999.90;;;18.90;99.90;;;;;;5057736;28;20909;-89
2021/07/11 01:31:24;;;;;;;1999.90;999.90;;;18.90;99.90;;;;;;5075691;28;20430;-89
2021/07/11 01:33:51;;;;;;;1999.90;999.90;;;18.90;99.90;;;;;;5075856;28;20766;-89
2021/07/11 01:36:20;;;;;;;1999.90;999.90;;;18.90;99.90;;;;;;5104210;22;20965;-85
2021/07/11 01:38:48;;;;;;;1999.90;999.90;;;18.90;99.90;;;;;;5095815;28;20814;-85
2021/07/11 01:41:16;;;;;;;1999.90;999.90;;;18.90;99.90;;;;;;5095587;28;20471;-85
2021/07/11 01:43:46;;;;;;;1999.90;999.90;;;18.90;99.90;;;;;;5095703;28;20417;-85
2021/07/11 01:46:12;;;;;;;1999.90;999.90;;;18.90;99.90;;;;;;5096043;28;20409;-85
2021/07/11 01:48:48;;;;;;;1999.90;999.90;;;18.90;99.90;;;;;;5077223;28;20402;-85
2021/07/11 01:51:14;;;;;;;1999.90;999.90;;;18.90;99.90;;;;;;5095936;28;20382;-85
2021/07/11 01:53:44;;;;;;;1999.90;999.90;;;18.90;99.90;;;;;;5094046;28;20916;-85
2021/07/11 01:56:15;;;;;;;1999.90;999.90;;;18.90;99.90;;;;;;5095216;28;20532;-84
2021/07/11 01:58:44;;;;;;;1999.90;999.90;;;18.80;99.90;;;;;;5095781;28;20473;-84
2021/07/11 02:01:14;;;;;;;1999.90;999.90;;;18.80;99.90;;;;;;5093975;28;20405;-84
2021/07/11 02:03:40;;;;;;;1999.90;999.90;;;18.80;99.90;;;;;;5095088;28;20382;-84
2021/07/11 02:06:07;;;;;;;1999.90;999.90;;;18.90;99.90;;;;;;5076739;28;20429;-84
2021/07/11 02:08:36;;;;;;;1999.90;999.90;;;18.80;99.90;;;;;;5077129;28;20911;-84
2021/07/11 02:11:06;;;;;;;1999.90;999.90;;;18.80;99.90;;;;;;5095255;28;20390;-84
2021/07/11 02:13:58;;;;;;;1999.90;999.90;;;18.80;99.90;;;;;;5076750;28;20474;-84
2021/07/11 02:16:27;;;;;;;1999.90;999.90;;;18.80;99.90;;;;;;5095159;28;20423;-84
2021/07/11 02:18:56;;;;;;;1999.90;999.90;;;18.80;99.90;;;;;;5095228;28;20398;-85
2021/07/11 02:21:23;;;;;;;1999.90;999.90;;;18.80;99.90;;;;;;5094185;28;20398;-85
2021/07/11 02:23:50;;;;;;;1999.90;999.90;;;18.80;99.90;;;;;;5076479;28;20581;-85
2021/07/11 02:26:20;;;;;;;1999.90;999.90;;;18.80;99.90;;;;;;5095064;28;20967;-84
2021/07/11 02:28:48;;;;;;;1999.90;999.90;;;18.80;99.90;;;;;;5094604;28;20466;-84
2021/07/11 02:31:14;;;;;;;1999.90;999.90;;;18.80;99.90;;;;;;5095366;28;20436;-85
2021/07/11 02:33:48;;;;;;;1999.90;999.90;;;18.70;99.90;;;;;;5093995;28;20512;-85
2021/07/11 02:36:21;;;;;;;1999.90;999.90;;;18.70;99.90;;;;;;5094647;28;20439;-84
2021/07/11 02:39:06;;;;;;;1999.90;999.90;;;18.70;99.90;;;;;;5096162;28;20382;-85
2021/07/11 02:41:32;;;;;;;1999.90;999.90;;;18.70;99.90;;;;;;5077599;28;20420;-85
2021/07/11 02:44:02;;;;;;;1999.90;999.90;;;18.70;99.90;;;;;;5094765;28;20915;-85
2021/07/11 02:46:34;;;;;;;1999.90;999.90;;;18.70;99.90;;;;;;5094497;28;20421;-84
2021/07/11 02:49:01;;;;;;;1999.90;999.90;;;18.70;99.90;;;;;;5095024;28;20370;-85
2021/07/11 02:51:30;;;;;;;1999.90;999.90;;;18.70;99.90;;;;;;5094746;28;20889;-85
2021/07/11 02:53:59;;;;;;;1999.90;999.90;;;18.70;99.90;;;;;;5077301;28;20401;-85
2021/07/11 02:56:27;;;;;;;1999.90;999.90;;;18.70;99.90;;;;;;5094826;28;20879;-85
2021/07/11 02:58:57;;;;;;;1999.90;999.90;;;18.70;99.90;;;;;;5094599;28;20401;-85
2021/07/11 03:01:25;;;;;;;1999.90;999.90;;;18.60;99.90;;;;;;5094853;28;20385;-85
2021/07/11 03:03:55;;;;;;;1999.90;999.90;;;18.60;99.90;;;;;;5076571;28;20441;-85
2021/07/11 03:06:20;;;;;;;1999.90;999.90;;;18.60;99.90;;;;;;5076187;28;20532;-85
2021/07/11 03:08:46;;;;;;;1999.90;999.90;;;18.60;99.90;;;;;;5093439;28;20484;-85
2021/07/11 03:11:13;;;;;;;1999.90;999.90;;;18.70;99.90;;;;;;5094315;28;20216;-85
2021/07/11 03:13:42;;;;;;;1999.90;999.90;;;18.60;99.90;;;;;;5076099;28;20250;-85
2021/07/11 03:16:09;;;;;;;1999.90;999.90;;;18.60;99.90;;;;;;5094303;28;20416;-84
2021/07/11 03:18:36;;;;;;;1999.90;999.90;;;18.60;99.90;;;;;;5094626;28;20919;-85
2021/07/11 03:21:04;;;;;;;1999.90;999.90;;;18.50;99.90;;;;;;5095367;28;20409;-85
2021/07/11 03:23:33;;;;;;;1999.90;999.90;;;18.50;99.90;;;;;;5096073;28;20396;-85
2021/07/11 03:25:58;;;;;;;1999.90;999.90;;;18.50;99.90;;;;;;5076536;28;20906;-85
2021/07/11 03:28:24;;;;;;;1999.90;999.90;;;18.50;99.90;;;;;;5094355;28;20389;-85
2021/07/11 03:30:53;;;;;;;1999.90;999.90;;;18.50;99.90;;;;;;5094617;28;20515;-85
2021/07/11 03:33:22;;;;;;;1999.90;999.90;;;18.50;99.90;;;;;;5094787;28;20408;-85
2021/07/11 03:35:56;;;;;;;1999.90;999.90;;;18.50;99.90;;;;;;5094467;28;20797;-85
2021/07/11 03:38:26;;;;;;;1999.90;999.90;;;18.50;99.90;;;;;;5096040;28;20393;-85
2021/07/11 03:40:56;;;;;;;1999.90;999.90;;;18.50;99.90;;;;;;5095710;28;20908;-85
2021/07/11 03:43:25;;;;;;;1999.90;999.90;;;18.60;99.90;;;;;;5094249;28;20393;-85
2021/07/11 03:45:55;;;;;;;1999.90;999.90;;;18.50;99.90;;;;;;5093834;28;20484;-84
2021/07/11 03:48:26;;;;;;;1999.90;999.90;;;18.60;99.90;;;;;;5094989;28;20726;-85
2021/07/11 03:50:58;;;;;;;1999.90;999.90;;;18.60;99.90;;;;;;5097011;28;20409;-85
2021/07/11 03:53:32;;;;;;;1999.90;999.90;;;18.50;99.90;;;;;;5097003;28;20384;-85
2021/07/11 03:55:59;;;;;;;1999.90;999.90;;;18.50;99.90;;;;;;5096145;28;20470;-85
2021/07/11 03:58:29;;;;;;;1999.90;999.90;;;18.60;99.90;;;;;;5095430;28;20539;-85
2021/07/11 04:00:56;;;;;;;1999.90;999.90;;;18.60;99.90;;;;;;5095587;28;20893;-85
2021/07/11 04:03:24;;;;;;;1999.90;999.90;;;18.50;99.90;;;;;;5096007;28;20462;-85
2021/07/11 04:05:51;;;;;;;1999.90;999.90;;;18.50;99.90;;;;;;5097755;28;20453;-85
2021/07/11 04:08:19;;;;;;;1999.90;999.90;;;18.50;99.90;;;;;;5097604;28;20485;-85
2021/07/11 04:10:47;;;;;;;1999.90;999.90;;;18.50;99.90;;;;;;5079846;28;20427;-85
2021/07/11 04:13:14;;;;;;;1999.90;999.90;;;18.40;99.90;;;;;;5096943;28;20401;-85
2021/07/11 04:15:41;;;;;;;1999.90;999.90;;;18.40;99.90;;;;;;5097296;28;20831;-85
2021/07/11 04:18:13;;;;;;;1999.90;999.90;;;18.40;99.90;;;;;;5097209;28;20405;-85
2021/07/11 04:20:41;;;;;;;1999.90;999.90;;;18.40;99.90;;;;;;5098040;28;20757;-85
2021/07/11 04:23:08;;;;;;;1999.90;999.90;;;18.50;99.90;;;;;;5079217;28;20797;-85
2021/07/11 04:25:40;;;;;;;1999.90;999.90;;;18.50;99.90;;;;;;5079299;28;20461;-84
2021/07/11 04:28:06;;;;;;;1999.90;999.90;;;18.50;99.90;;;;;;5079224;28;20488;-84
2021/07/11 04:30:32;;;;;;;1999.90;999.90;;;18.50;99.90;;;;;;5097167;28;20456;-85
2021/07/11 04:32:58;;;;;;;1999.90;999.90;;;18.50;99.90;;;;;;5097780;28;20404;-84
2021/07/11 04:35:24;;;;;;;1999.90;999.90;;;18.50;99.90;;;;;;5095684;28;20804;-84
2021/07/11 04:37:50;;;;;;;1999.90;999.90;;;18.50;99.90;;;;;;5098034;28;20167;-85
2021/07/11 04:40:15;;;;;;;1999.90;999.90;;;18.50;99.90;;;;;;5079611;28;20198;-84
2021/07/11 04:42:41;;;;;;;1999.90;999.90;;;18.50;99.90;;;;;;5096099;28;20164;-85
2021/07/11 04:45:08;;;;;;;1999.90;999.90;;;18.50;99.90;;;;;;5098109;28;20191;-85
2021/07/11 04:47:33;;;;;;;1999.90;999.90;;;18.50;99.90;;;;;;5084890;28;20398;-85
2021/07/11 04:49:59;;;;;;;1999.90;999.90;;;18.50;99.90;;;;;;5102511;28;20396;-85
2021/07/11 04:52:25;;;;;;;1999.90;999.90;;;18.50;99.90;;;;;;5102704;28;20155;-85
2021/07/11 04:54:51;;;;;;;1999.90;999.90;;;18.50;99.90;;;;;;5101918;28;20167;-85
2021/07/11 04:57:17;;;;;;;1999.90;999.90;;;18.60;99.90;;;;;;5100895;28;20429;-85
2021/07/11 04:59:43;;;;;;;1999.90;999.90;;;18.60;99.90;;;;;;5101461;28;20163;-85
2021/07/11 05:02:09;;;;;;;1999.90;999.90;;;18.60;99.90;;;;;;5100316;28;20417;-84
2021/07/11 05:04:34;;;;;;;1999.90;999.90;;;18.60;99.90;;;;;;5101356;28;20444;-85
2021/07/11 05:07:00;;;;;;;1999.90;999.90;;;18.60;99.90;;;;;;5102281;28;20670;-84
2021/07/11 05:09:32;;;;;;;1999.90;999.90;;;18.60;99.90;;;;;;5101153;28;20176;-85
2021/07/11 05:12:00;;;;;;;1999.90;999.90;;;18.60;99.90;;;;;;5102330;28;20147;-85
2021/07/11 05:14:28;;;;;;;1999.90;999.90;;;18.60;99.90;;;;;;5103144;28;20405;-84
2021/07/11 05:16:54;;;;;;;1999.90;999.90;;;18.60;99.90;;;;;;5101427;28;20834;-84
2021/07/11 05:19:20;;;;;;;1999.90;999.90;;;18.70;99.90;;;;;;5102229;28;20409;-85
2021/07/11 05:21:45;;;;;;;1999.90;999.90;;;18.80;99.90;;;;;;5084312;28;20658;-84
2021/07/11 05:24:11;;;;;;;1999.90;999.90;;;18.80;99.90;;;;;;5103135;28;20296;-85
2021/07/11 05:26:37;;;;;;;1999.90;999.90;;;18.80;99.90;;;;;;5102352;28;20584;-84
2021/07/11 05:29:05;;;;;;;1999.90;999.90;;;18.80;99.90;;;;;;5101780;28;20183;-85
2021/07/11 05:31:30;;;;;;;1999.90;999.90;;;18.80;99.90;;;;;;5102130;28;20167;-84
2021/07/11 05:33:56;;;;;;;1999.90;999.90;;;18.80;99.90;;;;;;5102173;28;20776;-85
2021/07/11 05:36:22;;;;;;;1999.90;999.90;;;18.80;99.90;;;;;;5101108;28;20213;-84
2021/07/11 05:38:51;;;;;;;1999.90;999.90;;;18.90;99.90;;;;;;5101217;28;20714;-84
2021/07/11 05:41:17;;;;;;;1999.90;999.90;;;18.90;99.90;;;;;;5103954;28;20238;-84
2021/07/11 05:43:43;;;;;;;1999.90;999.90;;;18.90;99.90;;;;;;5084987;28;20449;-84
2021/07/11 05:46:09;;;;;;;1999.90;999.90;;;18.90;99.90;;;;;;5101057;28;20194;-84
2021/07/11 05:48:35;;;;;;;1999.90;999.90;;;18.80;99.90;;;;;;5103004;28;20753;-84
2021/07/11 05:51:00;;;;;;;1999.90;999.90;;;18.90;99.90;;;;;;5103299;28;20534;-84
2021/07/11 05:53:26;;;;;;;1999.90;999.90;;;19.00;99.90;;;;;;5103596;28;20167;-84
2021/07/11 05:55:52;;;;;;;1999.90;999.90;;;19.00;99.90;;;;;;5107559;28;20261;-84
2021/07/11 05:58:17;;;;;;;1999.90;999.90;;;18.90;99.90;;;;;;5107801;28;20167;-84
2021/07/11 06:00:43;;;;;;;1999.90;999.90;;;18.90;99.90;;;;;;5102781;28;20623;-84
2021/07/11 06:03:10;;;;;;;1999.90;999.90;;;18.90;99.90;;;;;;5086261;28;20248;-84
2021/07/11 06:05:39;;;;;;;1999.90;999.90;;;18.90;99.90;;;;;;5104451;28;20279;-83
2021/07/11 06:08:05;;;;;;;1999.90;999.90;;;18.90;99.90;;;;;;5102198;28;20890;-84
2021/07/11 06:10:31;;;;;;;1999.90;999.90;;;19.00;99.90;;;;;;5103862;28;20405;-84
2021/07/11 06:12:57;;;;;;;1999.90;999.90;;;19.00;99.90;;;;;;5084103;28;20917;-84
2021/07/11 06:15:23;;;;;;;1999.90;999.90;;;19.00;99.90;;;;;;5083832;28;20175;-84
2021/07/11 06:17:51;;;;;;;1999.90;999.90;;;19.10;99.90;;;;;;5102199;28;20642;-84
2021/07/11 06:20:17;;;;;;;1999.90;999.90;;;19.00;99.90;;;;;;5101198;28;20282;-84
2021/07/11 06:22:43;;;;;;;1999.90;999.90;;;19.00;99.90;;;;;;5101863;28;20429;-84
2021/07/11 06:25:09;;;;;;;1999.90;999.90;;;19.00;99.90;;;;;;5102589;28;20187;-83
2021/07/11 06:27:39;;;;;;;1999.90;999.90;;;19.00;99.90;;;;;;5101585;28;20404;-84
2021/07/11 06:30:06;;;;;;;1999.90;999.90;;;19.00;99.90;;;;;;5100492;28;20908;-84
2021/07/11 06:32:32;;;;;;;1999.90;999.90;;;19.00;99.90;;;;;;5099219;28;20950;-84
2021/07/11 06:34:58;;;;;;;1999.90;999.90;;;18.90;99.90;;;;;;5099375;28;20398;-83
2021/07/11 06:37:24;;;;;;;1999.90;999.90;;;19.00;99.90;;;;;;5099869;28;20685;-84
2021/07/11 06:39:50;;;;;;;1999.90;999.90;;;19.00;99.90;;;;;;5102063;28;20477;-84
2021/07/11 06:42:15;;;;;;;1999.90;999.90;;;19.10;99.90;;;;;;5101814;28;20568;-84
2021/07/11 06:44:41;;;;;;;1999.90;999.90;;;19.10;99.90;;;;;;5082660;28;20301;-84
2021/07/11 06:47:08;;;;;;;1999.90;999.90;;;19.10;99.90;;;;;;5100455;28;20210;-84
2021/07/11 06:49:34;;;;;;;1999.90;999.90;;;19.00;99.90;;;;;;5100877;28;20226;-83
2021/07/11 06:52:01;;;;;;;1999.90;999.90;;;19.00;99.90;;;;;;5083490;28;20923;-84
2021/07/11 06:54:26;;;;;;;1999.90;999.90;;;19.10;99.90;;;;;;5101356;28;20397;-84
2021/07/11 06:56:55;;;;;;;1999.90;999.90;;;19.00;99.90;;;;;;5101157;28;20761;-84
2021/07/11 06:59:21;;;;;;;1999.90;999.90;;;19.00;99.90;;;;;;5101257;28;20228;-84
2021/07/11 07:01:47;;;;;;;1999.90;999.90;;;19.00;99.90;;;;;;5101187;28;20389;-83
2021/07/11 07:04:12;;;;;;;1999.90;999.90;;;19.00;99.90;;;;;;5102107;28;20660;-84
2021/07/11 07:06:38;;;;;;;1999.90;999.90;;;19.10;99.90;;;;;;5101269;28;20229;-84
2021/07/11 07:09:04;;;;;;;1999.90;999.90;;;19.10;99.90;;;;;;5100925;28;20178;-84
2021/07/11 07:11:30;;;;;;;1999.90;999.90;;;19.20;99.90;;;;;;5100206;28;20163;-84
2021/07/11 07:13:56;;;;;;;1999.90;999.90;;;19.20;99.90;;;;;;5100885;28;20412;-84
2021/07/11 07:16:21;;;;;;;1999.90;999.90;;;19.20;99.90;;;;;;5099686;28;20191;-84
2021/07/11 07:18:47;;;;;;;1999.90;999.90;;;19.20;99.90;;;;;;5102021;28;20172;-84
2021/07/11 07:21:13;;;;;;;1999.90;999.90;;;19.10;99.90;;;;;;5102349;28;20164;-84
2021/07/11 07:23:38;;;;;;;1999.90;999.90;;;19.20;99.90;;;;;;5101514;28;20191;-84
2021/07/11 07:26:04;;;;;;;1999.90;999.90;;;19.20;99.90;;;;;;5100771;28;20179;-84
2021/07/11 07:28:30;;;;;;;1999.90;999.90;;;19.20;99.90;;;;;;5100237;28;20583;-84
2021/07/11 07:30:56;;;;;;;1999.90;999.90;;;19.20;99.90;;;;;;5101006;28;20195;-84
2021/07/11 07:33:22;;;;;;;1999.90;999.90;;;19.20;99.90;;;;;;5099673;28;20485;-84
2021/07/11 07:35:47;;;;;;;1999.90;999.90;;;19.20;99.90;;;;;;5195908;22;21034;-86
2021/07/11 07:38:13;;;;;;;1999.90;999.90;;;19.20;99.90;;;;;;5094487;28;20163;-86
2021/07/11 07:40:39;;;;;;;1999.90;999.90;;;19.30;99.90;;;;;;5092291;28;20167;-86
2021/07/11 07:43:05;;;;;;;1999.90;999.90;;;19.30;99.90;;;;;;5092015;28;20163;-86
2021/07/11 07:45:30;;;;;;;1999.90;999.90;;;19.30;99.90;;;;;;5093067;28;20202;-86
2021/07/11 07:47:56;;;;;;;1999.90;999.90;;;19.30;99.90;;;;;;5093484;28;20163;-86
2021/07/11 07:50:22;;;;;;;1999.90;999.90;;;19.30;99.90;;;;;;5093324;28;20166;-86
2021/07/11 07:52:48;;;;;;;1999.90;999.90;;;19.30;99.90;;;;;;5093664;28;20160;-86
2021/07/11 07:55:13;;;;;;;1999.90;999.90;;;19.40;99.90;;;;;;5093154;28;20225;-86
2021/07/11 07:57:39;;;;;;;1999.90;999.90;;;19.40;99.90;;;;;;5092197;28;20492;-86
2021/07/11 08:00:11;;;;;;;1999.90;999.90;;;19.40;99.90;;;;;;5093624;28;20166;-86
2021/07/11 08:02:43;;;;;;;1999.90;999.90;;;19.30;99.90;;;;;;5076547;28;20203;-86
2021/07/11 08:05:10;;;;;;;1999.90;999.90;;;19.30;99.90;;;;;;5094401;28;20488;-87
2021/07/11 08:07:36;;;;;;;1999.90;999.90;;;19.30;99.90;;;;;;5094155;28;20473;-87
2021/07/11 08:10:03;;;;;;;1999.90;999.90;;;19.30;99.90;;;;;;5093795;28;20999;-87
2021/07/11 08:12:29;;;;;;;1999.90;999.90;;;19.30;99.90;;;;;;5093436;28;20484;-86
2021/07/11 08:14:54;;;;;;;1999.90;999.90;;;19.30;99.90;;;;;;5093640;28;20500;-86
2021/07/11 08:17:20;;;;;;;1999.90;999.90;;;19.30;99.90;;;;;;5092308;28;20190;-87
2021/07/11 08:19:46;;;;;;;1999.90;999.90;;;19.20;99.90;;;;;;5097808;28;20167;-86
2021/07/11 08:22:11;;;;;;;1999.90;999.90;;;19.30;99.90;;;;;;5099200;28;20517;-86
2021/07/11 08:24:37;;;;;;;1999.90;999.90;;;19.30;99.90;;;;;;5099812;28;20262;-86
2021/07/11 08:27:04;;;;;;;1999.90;999.90;;;19.20;99.90;;;;;;5100506;28;20183;-86
2021/07/11 08:29:30;;;;;;;1999.90;999.90;;;19.20;99.90;;;;;;5098548;28;20680;-86
2021/07/11 08:31:56;;;;;;;1999.90;999.90;;;19.20;99.90;;;;;;5100833;28;20432;-87
2021/07/11 08:34:21;;;;;;;1999.90;999.90;;;19.10;99.90;;;;;;5103705;28;20441;-86
2021/07/11 08:36:48;;;;;;;1999.90;999.90;;;19.20;99.90;;;;;;5103361;28;20206;-87
2021/07/11 08:39:14;;;;;;;1999.90;999.90;;;19.30;99.90;;;;;;5100838;28;20175;-87
2021/07/11 08:41:39;;;;;;;1999.90;999.90;;;19.30;99.90;;;;;;5101065;28;20417;-86
2021/07/11 08:44:05;;;;;;;1999.90;999.90;;;19.40;99.90;;;;;;5099711;28;20193;-87
2021/07/11 08:46:31;;;;;;;1999.90;999.90;;;19.60;99.90;;;;;;5098792;28;20185;-86
2021/07/11 08:48:57;;;;;;;1999.90;999.90;;;19.70;99.90;;;;;;5101459;28;20167;-86
2021/07/11 08:51:22;;;;;;;1999.90;999.90;;;19.80;99.90;;;;;;5101330;28;20393;-86
2021/07/11 08:53:48;;;;;;;1999.90;999.90;;;20.00;99.90;;;;;;5102393;28;20550;-86
2021/07/11 08:56:17;;;;;;;1999.90;999.90;;;20.10;99.90;;;;;;5102632;28;20644;-87
2021/07/11 08:58:57;;;;;;;1999.90;999.90;;;20.20;99.90;;;;;;5101385;28;20155;-86
2021/07/11 09:01:24;;;;;;;1999.90;999.90;;;20.30;99.90;;;;;;5083320;28;20416;-87
2021/07/11 09:04:01;;;;;;;1999.90;999.90;;;20.50;99.90;;;;;;5078506;28;20401;-88
2021/07/11 09:06:26;;;;;;;1999.90;999.90;;;20.60;99.90;;;;;;5096605;28;20788;-87
2021/07/11 09:09:01;;;;;;;1999.90;999.90;;;20.70;99.90;;;;;;5097155;28;20394;-87
2021/07/11 09:11:27;;;;;;;1999.90;999.90;;;20.50;99.90;;;;;;5097923;28;20580;-86
2021/07/11 09:13:52;;;;;;;1999.90;999.90;;;20.60;99.90;;;;;;5102730;28;20383;-87
2021/07/11 09:16:18;;;;;;;1999.90;999.90;;;20.80;99.90;;;;;;5101343;28;20244;-85
2021/07/11 09:18:43;;;;;;;1999.90;999.90;;;20.90;99.90;;;;;;5102713;28;20447;-86
2021/07/11 09:21:13;;;;;;;1999.90;999.90;;;21.10;99.90;;;;;;5103584;28;20237;-87
2021/07/11 09:23:41;;;;;;;1999.90;999.90;;;21.20;99.90;;;;;;5104471;28;20168;-87
2021/07/11 09:26:12;;;;;;;1999.90;999.90;;;21.30;99.90;;;;;;5104838;28;20513;-87
2021/07/11 09:28:50;;;;;;;1999.90;999.90;;;21.40;99.90;;;;;;5104141;28;20395;-87
2021/07/11 09:31:21;;;;;;;1999.90;999.90;;;21.60;99.90;;;;;;5084184;28;20403;-87
2021/07/11 09:33:55;;;;;;;1999.90;999.90;;;21.70;99.90;;;;;;5099047;28;20385;-86
2021/07/11 09:36:22;;;;;;;1999.90;999.90;;;21.90;99.90;;;;;;5095998;28;20488;-88
2021/07/11 09:38:50;;;;;;;1999.90;999.90;;;22.10;99.90;;;;;;5096595;28;20404;-88
2021/07/11 09:41:28;;;;;;;1999.90;999.90;;;22.00;99.90;;;;;;5096172;28;20446;-87
2021/07/11 09:43:56;;;;;;;1999.90;999.90;;;22.00;99.90;;;;;;5097084;28;20388;-87
2021/07/11 09:46:23;;;;;;;1999.90;999.90;;;22.00;99.90;;;;;;5077992;28;20425;-87
2021/07/11 09:48:53;;;;;;;1999.90;999.90;;;22.20;99.90;;;;;;5079377;28;20575;-85
2021/07/11 09:51:27;;;;;;;1999.90;999.90;;;22.20;99.90;;;;;;5096276;28;21039;-85
2021/07/11 09:53:55;;;;;;;1999.90;999.90;;;22.30;99.90;;;;;;5101306;28;20369;-86
2021/07/11 09:56:44;;;;;;;1999.90;999.90;;;22.50;99.90;;;;;;5087865;28;20858;-87
2021/07/11 09:59:13;;;;;;;1999.90;999.90;;;22.60;99.90;;;;;;5105535;28;20447;-86
2021/07/11 10:01:43;;;;;;;1999.90;999.90;;;22.60;99.90;;;;;;5087834;28;20389;-87
2021/07/11 10:04:10;;;;;;;1999.90;999.90;;;22.60;99.90;;;;;;5104673;28;20437;-87
2021/07/11 10:06:40;;;;;;;1999.90;999.90;;;22.70;99.90;;;;;;5108763;28;20421;-87
2021/07/11 10:09:07;;;;;;;1999.90;999.90;;;22.70;99.90;;;;;;5078917;28;20876;-87
2021/07/11 10:11:33;;;;;;;1999.90;999.90;;;22.70;99.90;;;;;;5095580;28;20390;-88
2021/07/11 10:13:59;;;;;;;1999.90;999.90;;;22.70;99.90;;;;;;5095880;28;20881;-88
2021/07/11 10:16:28;;;;;;;1999.90;999.90;;;22.70;99.90;;;;;;5095567;28;20417;-89
2021/07/11 10:19:03;;;;;;;1999.90;999.90;;;22.80;99.90;;;;;;5077425;28;20254;-89
2021/07/11 10:21:30;;;;;;;1999.90;999.90;;;22.90;99.90;;;;;;5095730;28;20892;-89
2021/07/11 10:23:57;;;;;;;1999.90;999.90;;;23.10;99.90;;;;;;5095903;28;20378;-89
2021/07/11 10:26:23;;;;;;;1999.90;999.90;;;23.10;99.90;;;;;;5095663;28;20509;-88
2021/07/11 10:28:51;;;;;;;1999.90;999.90;;;23.20;99.90;;;;;;5095301;28;20393;-89
2021/07/11 10:31:25;;;;;;;1999.90;999.90;;;23.40;99.90;;;;;;5077268;28;20864;-89
2021/07/11 10:33:56;;;;;;;1999.90;999.90;;;23.40;99.90;;;;;;5078198;28;20408;-89
2021/07/11 10:36:39;;;;;;;1999.90;999.90;;;23.50;99.90;;;;;;5076370;28;20526;-91
2021/07/11 10:39:08;;;;;;;1999.90;999.90;;;23.30;99.90;;;;;;5077668;28;20417;-90
2021/07/11 10:41:34;;;;;;;1999.90;999.90;;;23.40;99.90;;;;;;5094152;28;20393;-89
2021/07/11 10:44:06;;;;;;;1999.90;999.90;;;23.50;99.90;;;;;;5093718;28;20955;-89
2021/07/11 10:46:47;;;;;;;1999.90;999.90;;;23.40;99.90;;;;;;5094557;28;20183;-89
2021/07/11 10:49:21;;;;;;;1999.90;999.90;;;23.40;99.90;;;;;;5076807;28;20405;-90
2021/07/11 10:51:51;;;;;;;1999.90;999.90;;;23.30;99.90;;;;;;5077132;28;20440;-90
2021/07/11 10:54:55;;;;;;;1999.90;999.90;;;23.20;99.90;;;;;;5094792;28;20447;-90
2021/07/11 10:57:31;;;;;;;1999.90;999.90;;;23.20;99.90;;;;;;5093165;28;20860;-89
2021/07/11 11:00:07;;;;;;;1999.90;999.90;;;23.40;99.90;;;;;;5094334;28;20413;-90
2021/07/11 11:02:54;;;;;;;1999.90;999.90;;;23.40;99.90;;;;;;5094370;28;20403;-90
2021/07/11 11:05:21;;;;;;;1999.90;999.90;;;23.50;99.90;;;;;;5095007;28;20486;-90
2021/07/11 11:08:12;;;;;;;1999.90;999.90;;;23.50;99.90;;;;;;5094920;28;20381;-91
2021/07/11 11:10:52;;;;;;;1999.90;999.90;;;23.80;99.90;;;;;;5076146;28;20772;-90
2021/07/11 11:13:29;;;;;;;1999.90;999.90;;;23.90;99.90;;;;;;5095217;28;20444;-90
2021/07/11 11:16:19;;;;;;;1999.90;999.90;;;24.10;99.90;;;;;;5094958;28;20417;-90
2021/07/11 11:19:15;;;;;;;1999.90;999.90;;;24.30;99.90;;;;;;5076467;28;20405;-90
2021/07/11 11:21:44;;;;;;;1999.90;999.90;;;24.20;99.90;;;;;;5076619;28;20401;-90
2021/07/11 11:24:10;;;;;;;1999.90;999.90;;;24.30;99.90;;;;;;5076585;28;20449;-89
2021/07/11 11:26:42;;;;;;;1999.90;999.90;;;24.30;99.90;;;;;;5076418;28;20497;-90
2021/07/11 11:29:10;;;;;;;1999.90;999.90;;;24.00;99.90;;;;;;5092853;28;20168;-90
2021/07/11 11:31:36;;;;;;;1999.90;999.90;;;24.00;99.90;;;;;;5093369;28;20402;-90
2021/07/11 11:34:30;;;;;;;1999.90;999.90;;;24.00;99.90;;;;;;5094481;28;20409;-91
2021/07/11 11:37:06;;;;;;;1999.90;999.90;;;23.90;99.90;;;;;;5076553;28;20472;-90
2021/07/11 11:39:44;;;;;;;;;;;;;;;;;;;;;
2021/07/11 11:42:13;;;;;;;1999.90;999.90;;;23.10;99.90;;;;;;5095104;28;20500;-90
2021/07/11 11:44:45;;;;;;;1999.90;999.90;;;23.10;99.90;;;;;;5076714;28;20441;-90
2021/07/11 11:47:13;;;;;;;1999.90;999.90;;;23.10;99.90;;;;;;5094227;28;20452;-90
2021/07/11 11:49:41;;;;;;;1999.90;999.90;;;22.80;99.90;;;;;;5092858;28;20401;-90
2021/07/11 11:52:07;;;;;;;1999.90;999.90;;;22.60;99.90;;;;;;5094220;28;20397;-89
2021/07/11 11:54:41;;;;;;;1999.90;999.90;;;22.50;99.90;;;;;;5093253;28;20404;-89
2021/07/11 11:57:10;;;;;;;1999.90;999.90;;;22.50;99.90;;;;;;5076060;28;20986;-89
2021/07/11 11:59:38;;;;;;;1999.90;999.90;;;22.50;99.90;;;;;;5076349;28;20401;-89
2021/07/11 12:02:11;;;;;;;1999.90;999.90;;;22.50;99.90;;;;;;5094587;28;20402;-90
2021/07/11 12:05:03;;;;;;;;;;;;;;;;;;;;;
2021/07/11 12:07:39;;;;;;;1999.90;999.90;;;22.70;99.90;;;;;;5091891;28;20436;-89
2021/07/11 12:10:05;;;;;;;1999.90;999.90;;;22.80;99.90;;;;;;5094859;28;20420;-89
2021/07/11 12:13:10;;;;;;;1999.90;999.90;;;22.80;99.90;;;;;;5093264;28;20427;-90
2021/07/11 12:15:40;;;;;;;1999.90;999.90;;;22.80;99.90;;;;;;5092791;28;20524;-90
2021/07/11 12:18:11;;;;;;;1999.90;999.90;;;22.80;99.90;;;;;;5076623;28;20419;-90